Time;durP1;ratioP1;P1;durP2;ratioP2;P2;SDS_P1;SDS_P2;PMS_P1;PMS_P2;Temp;Humidity;BMP_temperature;BMP_pressure;BME280_temperature;BME280_humidity;BME280_pressure;Samples;Min_cycle;Max_cycle;Signal;HPM_P1;HPM_P2
2022/09/13 00:01:09;;;;;;;4.80;3.60;;;;;;;15.70;57.59;94740.69;5010982;28;20310;-66
2022/09/13 00:03:34;;;;;;;5.65;3.70;;;;;;;15.72;57.56;94741.34;5007922;28;20627;-66
2022/09/13 00:06:11;;;;;;;3.40;3.20;;;;;;;15.75;57.37;94746.25;5011859;28;20321;-66
2022/09/13 00:08:38;;;;;;;4.57;3.40;;;;;;;15.63;57.86;94737.94;5011029;28;20228;-65
2022/09/13 00:11:04;;;;;;;4.00;3.50;;;;;;;15.71;57.80;94739.69;5010659;28;20314;-65
2022/09/13 00:13:30;;;;;;;3.97;3.60;;;;;;;15.80;57.55;94719.19;5008767;28;20230;-65
2022/09/13 00:15:55;;;;;;;4.03;3.63;;;;;;;15.84;57.37;94726.53;5022031;28;20230;-65
2022/09/13 00:18:21;;;;;;;6.15;3.72;;;;;;;15.87;57.32;94720.03;5010961;28;20214;-66
2022/09/13 00:20:47;;;;;;;3.97;3.63;;;;;;;15.92;56.99;94716.81;5008821;28;20214;-66
2022/09/13 00:23:13;;;;;;;4.93;3.78;;;;;;;15.78;57.87;94713.25;5003690;28;20231;-65
2022/09/13 00:25:38;;;;;;;3.72;3.35;;;;;;;15.75;57.64;94709.16;5006833;28;20257;-66
2022/09/13 00:28:04;;;;;;;4.22;3.63;;;;;;;15.73;57.94;94705.84;5003705;28;20246;-65
2022/09/13 00:30:31;;;;;;;5.22;3.78;;;;;;;15.73;58.21;94708.50;5002568;28;20231;-67
2022/09/13 00:32:56;;;;;;;4.72;3.80;;;;;;;15.70;58.10;94703.59;5007665;28;20214;-67
2022/09/13 00:35:22;;;;;;;4.13;3.60;;;;;;;15.82;57.92;94710.03;5010012;28;20237;-67
2022/09/13 00:37:48;;;;;;;4.05;3.65;;;;;;;15.76;57.86;94697.50;5010133;28;20312;-65
2022/09/13 00:40:14;;;;;;;4.07;3.60;;;;;;;15.77;58.17;94695.69;5007911;28;20311;-65
2022/09/13 00:42:40;;;;;;;4.10;3.70;;;;;;;15.83;58.08;94702.88;5008565;28;20301;-67
2022/09/13 00:45:05;;;;;;;7.15;3.88;;;;;;;15.90;57.69;94709.03;5002349;28;20223;-65
2022/09/13 00:47:41;;;;;;;3.80;3.15;;;;;;;15.88;57.91;94703.13;5002182;28;20585;-67
2022/09/13 00:50:33;;;;;;;4.45;3.65;;;;;;;15.95;57.58;94697.88;5005048;28;20223;-67
2022/09/13 00:53:29;;;;;;;3.83;3.53;;;;;;;15.96;57.65;94699.50;4997603;28;20231;-66
2022/09/13 00:56:08;;;;;;;4.40;3.60;;;;;;;15.93;57.84;94700.72;4952628;28;20232;-67
2022/09/13 00:58:40;;;;;;;4.35;3.67;;;;;;;16.03;57.57;94695.06;4971416;28;20604;-67
2022/09/13 01:01:10;;;;;;;3.92;3.33;;;;;;;16.01;57.58;94705.03;4960533;28;20228;-67
2022/09/13 01:03:37;;;;;;;4.35;3.95;;;;;;;16.04;57.29;94705.50;4971004;28;20259;-67
2022/09/13 01:06:31;;;;;;;3.60;3.35;;;;;;;16.03;57.59;94701.19;4969255;28;20196;-67
2022/09/13 01:09:02;;;;;;;4.30;3.28;;;;;;;16.10;57.27;94707.38;4969119;28;20219;-65
2022/09/13 01:11:44;;;;;;;5.65;4.05;;;;;;;16.08;57.33;94709.38;4973299;28;20218;-65
2022/09/13 01:14:10;;;;;;;4.10;3.67;;;;;;;16.13;57.35;94692.09;4956261;28;20250;-65
2022/09/13 01:16:36;;;;;;;5.38;3.70;;;;;;;16.08;57.47;94700.63;4973231;28;20264;-66
2022/09/13 01:19:02;;;;;;;3.85;3.45;;;;;;;16.07;57.28;94702.47;4956097;28;20227;-66
2022/09/13 01:22:06;;;;;;;3.90;3.60;;;;;;;16.05;57.51;94693.88;4949563;28;20239;-65
2022/09/13 01:24:40;;;;;;;3.60;3.30;;;;;;;16.11;57.26;94700.22;4965709;28;20831;-65
2022/09/13 01:27:27;;;;;;;4.72;3.70;;;;;;;16.08;57.47;94690.00;4969290;28;20390;-66
2022/09/13 01:30:11;;;;;;;3.17;2.97;;;;;;;16.13;57.17;94695.56;4951845;28;20673;-67
2022/09/13 01:32:42;;;;;;;4.57;3.75;;;;;;;16.03;57.50;94692.41;4991263;28;20218;-66
2022/09/13 01:35:08;;;;;;;4.20;3.72;;;;;;;16.07;57.47;94691.03;5009716;28;20226;-66
2022/09/13 01:38:07;;;;;;;4.03;3.63;;;;;;;16.09;57.21;94688.97;5009467;28;20526;-65
2022/09/13 01:40:42;;;;;;;4.35;3.95;;;;;;;16.08;57.32;94688.16;4999630;28;20281;-66
2022/09/13 01:43:30;;;;;;;3.83;3.38;;;;;;;16.05;57.39;94687.75;5009329;28;20222;-66
2022/09/13 01:46:26;;;;;;;4.20;3.80;;;;;;;16.08;57.36;94676.75;5004680;28;20252;-65
2022/09/13 01:48:59;;;;;;;4.55;3.50;;;;;;;15.92;57.93;94674.41;5020753;28;20223;-65
2022/09/13 01:51:38;;;;;;;4.38;3.58;;;;;;;15.93;57.83;94681.31;5004759;28;20222;-66
2022/09/13 01:54:25;;;;;;;3.60;3.30;;;;;;;15.95;57.87;94687.25;5008502;28;20214;-66
2022/09/13 01:57:15;;;;;;;3.95;3.65;;;;;;;15.93;57.88;94676.03;4996510;28;20207;-65
2022/09/13 01:59:52;;;;;;;4.43;3.33;;;;;;;15.95;57.81;94682.78;5000767;28;20218;-65
2022/09/13 02:02:56;;;;;;;3.80;3.40;;;;;;;15.92;58.03;94674.41;5011974;28;20320;-65
2022/09/13 02:05:43;;;;;;;4.13;3.63;;;;;;;15.92;57.88;94685.00;5003311;28;20230;-68
2022/09/13 02:08:16;;;;;;;4.82;3.60;;;;;;;15.76;58.34;94678.97;5005817;28;20802;-65
2022/09/13 02:10:58;;;;;;;4.05;3.65;;;;;;;15.84;58.14;94678.00;5007385;28;20219;-65
2022/09/13 02:13:29;;;;;;;3.97;3.58;;;;;;;15.85;57.94;94680.47;4995267;28;20220;-65
2022/09/13 02:16:02;;;;;;;4.97;3.63;;;;;;;15.86;58.16;94684.75;5003035;28;20227;-65
2022/09/13 02:18:35;;;;;;;4.85;3.55;;;;;;;15.81;58.42;94683.69;5000987;28;20219;-65
2022/09/13 02:21:10;;;;;;;4.15;3.80;;;;;;;15.81;58.32;94681.84;5006142;28;20203;-65
2022/09/13 02:23:43;;;;;;;5.13;3.50;;;;;;;15.70;58.67;94684.22;4998497;28;20245;-65
2022/09/13 02:26:12;;;;;;;3.83;3.35;;;;;;;15.64;58.92;94672.53;4997101;28;20222;-67
2022/09/13 02:28:44;;;;;;;4.30;3.85;;;;;;;15.65;58.75;94679.44;5006925;28;20234;-67
2022/09/13 02:31:11;;;;;;;4.07;3.72;;;;;;;15.58;59.10;94681.22;5001555;28;20218;-67
2022/09/13 02:33:46;;;;;;;4.88;3.88;;;;;;;15.54;59.26;94675.50;5004543;28;20239;-67
2022/09/13 02:36:18;;;;;;;5.00;3.75;;;;;;;15.54;59.08;94675.50;5020782;28;20297;-66
2022/09/13 02:38:55;;;;;;;3.97;3.58;;;;;;;15.39;59.47;94683.50;5007704;28;20226;-67
2022/09/13 02:41:29;;;;;;;6.07;3.70;;;;;;;15.41;59.53;94691.28;5006865;28;20245;-66
2022/09/13 02:44:22;;;;;;;4.45;3.92;;;;;;;15.48;59.38;94688.69;5005363;28;20315;-66
2022/09/13 02:47:06;;;;;;;4.88;3.88;;;;;;;15.45;59.38;94687.25;4965863;28;20390;-67
2022/09/13 02:49:37;;;;;;;4.07;3.67;;;;;;;15.32;59.75;94685.28;4964896;28;20327;-66
2022/09/13 02:52:13;;;;;;;3.83;3.53;;;;;;;15.32;59.83;94695.06;4949827;28;20227;-67
2022/09/13 02:54:42;;;;;;;5.45;3.83;;;;;;;15.25;60.11;94689.69;4950897;28;20216;-66
2022/09/13 02:57:25;;;;;;;4.78;3.45;;;;;;;15.23;60.20;94686.41;4954127;28;20231;-66
2022/09/13 02:59:50;;;;;;;4.35;3.95;;;;;;;15.25;60.32;94687.03;4946645;28;20240;-66
2022/09/13 03:02:20;;;;;;;5.28;3.63;;;;;;;15.25;59.88;94691.53;4970327;28;20215;-66
2022/09/13 03:04:46;;;;;;;5.13;3.85;;;;;;;15.22;59.88;94690.88;4967282;28;20658;-66
2022/09/13 03:07:13;;;;;;;3.58;3.28;;;;;;;15.20;59.96;94689.44;4958503;28;20220;-67
2022/09/13 03:09:48;;;;;;;4.28;3.70;;;;;;;15.13;60.24;94692.03;4964153;28;20232;-66
2022/09/13 03:12:38;;;;;;;4.93;3.65;;;;;;;15.10;60.23;94691.56;4940818;28;20371;-66
2022/09/13 03:15:12;;;;;;;3.80;3.50;;;;;;;15.18;60.23;94691.44;4958619;28;20216;-66
2022/09/13 03:17:49;;;;;;;4.63;3.42;;;;;;;15.25;60.00;94692.34;4945620;28;20231;-67
2022/09/13 03:20:45;;;;;;;4.75;4.10;;;;;;;15.23;60.10;94691.69;4952643;28;20341;-66
2022/09/13 03:23:26;;;;;;;4.28;3.88;;;;;;;15.25;59.69;94694.16;4969402;28;20322;-67
2022/09/13 03:26:06;;;;;;;4.35;3.95;;;;;;;15.25;60.00;94692.34;4994422;28;20219;-66
2022/09/13 03:28:49;;;;;;;3.97;3.60;;;;;;;15.27;59.90;94689.50;4995068;28;20241;-66
2022/09/13 03:31:44;;;;;;;4.38;3.33;;;;;;;15.22;59.83;94687.41;5001375;28;20306;-66
2022/09/13 03:34:30;;;;;;;3.92;3.53;;;;;;;15.22;60.03;94696.19;4951248;28;20228;-66
2022/09/13 03:37:31;;;;;;;4.65;3.97;;;;;;;15.18;60.23;94694.94;4954207;28;20615;-66
2022/09/13 03:40:02;;;;;;;3.58;3.28;;;;;;;15.19;59.69;94685.16;4967250;28;20228;-67
2022/09/13 03:42:40;;;;;;;3.65;3.30;;;;;;;15.25;59.72;94692.34;4951634;28;20731;-67
2022/09/13 03:45:08;;;;;;;3.72;3.42;;;;;;;15.25;59.30;94694.16;4958473;28;20460;-66
2022/09/13 03:47:37;;;;;;;5.28;3.78;;;;;;;15.25;59.36;94687.03;4952565;28;20223;-67
2022/09/13 03:50:06;;;;;;;4.25;3.17;;;;;;;15.12;59.62;94695.66;4955675;28;21057;-66
2022/09/13 03:52:32;;;;;;;3.55;3.25;;;;;;;15.06;59.96;94701.72;4955773;28;20224;-67
2022/09/13 03:54:58;;;;;;;4.63;4.22;;;;;;;15.05;59.72;94693.94;4973944;28;20220;-67
2022/09/13 03:57:23;;;;;;;4.00;3.50;;;;;;;15.04;59.70;94698.41;4972991;28;20231;-66
2022/09/13 03:59:51;;;;;;;3.80;3.50;;;;;;;14.99;59.97;94698.16;4955029;28;20204;-66
2022/09/13 04:02:18;;;;;;;3.85;3.45;;;;;;;15.00;60.12;94699.81;4959279;28;20234;-66
2022/09/13 04:04:45;;;;;;;4.00;3.45;;;;;;;15.02;60.02;94696.97;4953972;28;20377;-66
2022/09/13 04:07:15;;;;;;;3.47;3.20;;;;;;;14.97;60.31;94702.84;4956507;28;20230;-67
2022/09/13 04:09:41;;;;;;;3.83;3.20;;;;;;;15.05;59.97;94701.88;4971888;28;20302;-67
2022/09/13 04:12:08;;;;;;;4.40;3.55;;;;;;;15.00;59.73;94703.28;5004014;28;22628;-69
2022/09/13 04:14:34;;;;;;;6.10;5.50;;;;;;;14.94;60.20;94706.69;5021324;28;20221;-69
2022/09/13 04:17:00;;;;;;;5.65;4.65;;;;;;;14.89;60.52;94700.28;5007250;28;20224;-69
2022/09/13 04:19:25;;;;;;;5.80;4.15;;;;;;;14.89;60.18;94690.53;5010083;28;20222;-69
2022/09/13 04:21:53;;;;;;;5.28;3.65;;;;;;;14.88;60.20;94696.00;5010449;28;20249;-69
2022/09/13 04:24:19;;;;;;;7.72;4.00;;;;;;;14.93;60.30;94704.22;5002171;28;20216;-70
2022/09/13 04:26:49;;;;;;;4.10;3.80;;;;;;;14.92;60.34;94699.94;5000643;28;20203;-72
2022/09/13 04:29:15;;;;;;;6.47;3.70;;;;;;;14.80;61.00;94706.69;5006062;28;20254;-72
2022/09/13 04:31:40;;;;;;;3.53;3.22;;;;;;;14.74;61.02;94705.63;5003846;28;20265;-72
2022/09/13 04:34:05;;;;;;;5.15;3.70;;;;;;;14.79;60.82;94703.22;5021067;28;20223;-72
2022/09/13 04:36:32;;;;;;;4.80;4.13;;;;;;;14.85;60.29;94713.06;5008541;28;20243;-71
2022/09/13 04:38:59;;;;;;;4.10;3.70;;;;;;;14.90;59.99;94718.63;5008972;28;20217;-72
2022/09/13 04:41:24;;;;;;;4.72;3.45;;;;;;;14.91;59.58;94714.97;5023964;28;20219;-72
2022/09/13 04:43:50;;;;;;;5.45;3.58;;;;;;;14.90;59.46;94720.47;5010594;28;20890;-70
2022/09/13 04:46:16;;;;;;;6.95;3.53;;;;;;;14.89;59.49;94722.31;5008824;28;20602;-70
2022/09/13 04:48:41;;;;;;;3.53;3.25;;;;;;;14.97;59.41;94716.91;5007547;28;20231;-71
2022/09/13 04:51:07;;;;;;;4.43;3.95;;;;;;;15.04;59.35;94724.09;5010176;28;20230;-67
2022/09/13 04:53:33;;;;;;;5.95;3.80;;;;;;;15.06;59.00;94727.38;5009153;28;20705;-66
2022/09/13 04:56:03;;;;;;;3.92;3.47;;;;;;;15.00;59.16;94729.75;5003790;28;20761;-66
2022/09/13 04:58:29;;;;;;;4.95;4.18;;;;;;;15.04;59.34;94724.09;5008815;28;20696;-67
2022/09/13 05:01:00;;;;;;;5.32;3.90;;;;;;;14.90;60.05;94729.22;5007294;28;20247;-67
2022/09/13 05:03:29;;;;;;;4.72;4.22;;;;;;;15.09;59.99;94729.66;5001946;28;20296;-67
2022/09/13 05:05:54;;;;;;;4.47;3.97;;;;;;;15.20;59.27;94729.97;5012360;28;20203;-67
2022/09/13 05:08:19;;;;;;;6.00;3.70;;;;;;;15.31;58.96;94728.66;5000155;28;20543;-66
2022/09/13 05:10:46;;;;;;;4.57;3.95;;;;;;;15.30;58.76;94734.16;5005454;28;20305;-66
2022/09/13 05:13:11;;;;;;;6.45;3.88;;;;;;;15.46;57.97;94730.44;4997578;28;20220;-66
2022/09/13 05:15:36;;;;;;;4.47;4.07;;;;;;;15.57;57.78;94732.59;5003657;28;20234;-66
2022/09/13 05:18:02;;;;;;;7.32;3.92;;;;;;;15.76;56.75;94724.03;5015196;28;20967;-67
2022/09/13 05:20:27;;;;;;;7.53;3.60;;;;;;;15.94;56.14;94722.75;4996132;28;20213;-67
2022/09/13 05:22:54;;;;;;;4.00;3.60;;;;;;;16.11;55.74;94724.09;5009817;28;20230;-67
2022/09/13 05:25:20;;;;;;;6.95;3.47;;;;;;;16.10;55.44;94719.81;5008412;28;20281;-66
2022/09/13 05:27:45;;;;;;;6.75;3.70;;;;;;;16.24;55.15;94726.84;5008426;28;20251;-66
2022/09/13 05:30:11;;;;;;;5.55;3.97;;;;;;;16.34;54.72;94723.03;5009237;28;20214;-67
2022/09/13 05:32:37;;;;;;;4.15;3.20;;;;;;;16.35;54.52;94720.19;5006568;28;20431;-67
2022/09/13 05:35:02;;;;;;;4.65;3.67;;;;;;;16.48;53.83;94714.94;5007353;28;20222;-66
2022/09/13 05:37:28;;;;;;;17.02;6.05;;;;;;;16.61;53.47;94727.50;5006802;28;20223;-66
2022/09/13 05:39:53;;;;;;;3.70;3.10;;;;;;;16.62;53.11;94729.13;5001991;28;20576;-66
2022/09/13 05:42:18;;;;;;;7.38;3.75;;;;;;;16.68;53.14;94724.84;5006847;28;20242;-66
2022/09/13 05:44:44;;;;;;;3.55;3.20;;;;;;;16.82;52.90;94731.91;5004785;28;20227;-67
2022/09/13 05:47:12;;;;;;;6.65;3.28;;;;;;;16.83;52.83;94732.72;5008215;28;20591;-66
2022/09/13 05:49:37;;;;;;;3.78;3.30;;;;;;;16.78;53.36;94729.84;5008965;28;20229;-66
2022/09/13 05:52:03;;;;;;;3.28;3.00;;;;;;;16.66;52.88;94727.72;5009001;28;20223;-66
2022/09/13 05:54:28;;;;;;;3.40;3.10;;;;;;;16.56;53.06;94723.78;5004218;28;20266;-66
2022/09/13 05:56:56;;;;;;;7.47;3.40;;;;;;;16.48;53.09;94730.06;5007570;28;20301;-66
2022/09/13 05:59:21;;;;;;;4.35;3.22;;;;;;;16.47;53.46;94731.09;5000513;28;20369;-67
2022/09/13 06:01:47;;;;;;;3.20;2.90;;;;;;;16.47;52.75;94725.78;5008059;28;20314;-66
2022/09/13 06:04:13;;;;;;;3.60;3.30;;;;;;;16.41;52.98;94731.84;4998521;28;20226;-71
2022/09/13 06:06:39;;;;;;;2.97;2.72;;;;;;;16.43;53.09;94727.19;5008500;28;20273;-67
2022/09/13 06:09:07;;;;;;;4.50;2.80;;;;;;;16.43;52.77;94733.28;5003966;28;20755;-71
2022/09/13 06:11:32;;;;;;;4.78;2.78;;;;;;;16.37;53.17;94733.25;5001190;28;20203;-72
2022/09/13 06:13:58;;;;;;;4.25;3.22;;;;;;;16.24;53.54;94737.47;5006646;28;20228;-67
2022/09/13 06:16:23;;;;;;;3.30;3.00;;;;;;;16.21;53.20;94737.03;5008048;28;20711;-72
2022/09/13 06:18:49;;;;;;;2.78;2.58;;;;;;;16.21;53.10;94740.50;5015207;28;20313;-71
2022/09/13 06:21:20;;;;;;;3.60;2.95;;;;;;;16.36;53.08;94742.22;5003583;28;20218;-70
2022/09/13 06:23:47;;;;;;;3.80;3.50;;;;;;;16.48;53.13;94740.69;5002932;28;20759;-70
2022/09/13 06:26:15;;;;;;;3.95;3.20;;;;;;;16.47;52.63;94741.72;5007832;28;20218;-69
2022/09/13 06:28:41;;;;;;;3.75;3.40;;;;;;;16.61;52.91;94739.94;5006995;28;20277;-67
2022/09/13 06:31:12;;;;;;;3.88;3.22;;;;;;;16.64;53.07;94740.38;5008799;28;20231;-67
2022/09/13 06:33:40;;;;;;;3.40;2.80;;;;;;;16.75;52.93;94753.06;4997465;28;20246;-67
2022/09/13 06:36:13;;;;;;;5.53;3.33;;;;;;;16.89;52.58;94748.72;5008656;28;20264;-70
2022/09/13 06:38:39;;;;;;;7.20;3.50;;;;;;;16.96;52.82;94748.72;5005080;28;20289;-69
2022/09/13 06:41:11;;;;;;;4.05;3.60;;;;;;;17.10;52.58;94755.72;5013617;28;20886;-69
2022/09/13 06:43:38;;;;;;;3.78;3.47;;;;;;;16.99;52.48;94753.63;5003899;28;20793;-71
2022/09/13 06:46:15;;;;;;;5.40;3.10;;;;;;;17.06;52.43;94753.69;5008905;28;20218;-70
2022/09/13 06:48:42;;;;;;;5.05;3.20;;;;;;;17.26;52.08;94757.22;5007201;28;20215;-66
2022/09/13 06:51:11;;;;;;;3.72;3.42;;;;;;;17.23;52.22;94764.78;5009097;28;20235;-66
2022/09/13 06:53:37;;;;;;;4.07;3.10;;;;;;;17.38;51.42;94770.75;5005006;28;20310;-65
2022/09/13 06:56:06;;;;;;;4.88;3.20;;;;;;;17.50;50.86;94766.50;5008642;28;20600;-70
2022/09/13 06:58:32;;;;;;;4.63;2.97;;;;;;;17.47;50.71;94766.09;5006585;28;20234;-65
2022/09/13 07:01:09;;;;;;;4.72;3.08;;;;;;;17.37;50.63;94756.66;4997906;28;20226;-71
2022/09/13 07:03:35;;;;;;;5.45;3.67;;;;;;;17.38;50.16;94765.44;4992639;28;20778;-70
2022/09/13 07:06:19;;;;;;;5.90;3.30;;;;;;;17.27;50.61;94760.69;4992801;28;20677;-71
2022/09/13 07:08:45;;;;;;;4.18;3.03;;;;;;;17.30;50.42;94776.25;5000311;28;20301;-70
2022/09/13 07:11:12;;;;;;;6.20;3.00;;;;;;;17.32;50.33;94768.88;5008651;28;20257;-71
2022/09/13 07:13:38;;;;;;;3.75;2.85;;;;;;;17.41;49.82;94771.19;5005570;28;20533;-71
2022/09/13 07:16:07;;;;;;;3.00;2.70;;;;;;;17.43;49.62;94778.97;5002336;28;20262;-71
2022/09/13 07:18:33;;;;;;;3.13;2.83;;;;;;;17.54;49.52;94783.69;5007395;28;20219;-71
2022/09/13 07:21:07;;;;;;;4.30;2.95;;;;;;;17.44;49.53;94771.81;5010920;28;20229;-72
2022/09/13 07:23:34;;;;;;;4.60;3.30;;;;;;;17.52;49.37;94766.31;4998269;28;20211;-71
2022/09/13 07:26:06;;;;;;;3.08;2.78;;;;;;;17.64;48.54;94772.66;5004682;28;20350;-71
2022/09/13 07:28:40;;;;;;;3.25;2.90;;;;;;;17.75;48.45;94771.25;5022734;28;20253;-71
2022/09/13 07:31:10;;;;;;;3.78;3.05;;;;;;;17.89;47.19;94780.94;5011005;28;20676;-71
2022/09/13 07:33:36;;;;;;;4.15;2.65;;;;;;;17.81;47.72;94778.47;5007893;28;20227;-69
2022/09/13 07:36:05;;;;;;;2.80;2.60;;;;;;;17.82;48.25;94780.09;5012438;28;20223;-69
2022/09/13 07:38:33;;;;;;;4.70;3.10;;;;;;;17.72;48.88;94777.81;5027343;28;20235;-69
2022/09/13 07:40:59;;;;;;;2.70;2.50;;;;;;;17.76;47.93;94775.56;5012518;28;20265;-69
2022/09/13 07:43:26;;;;;;;5.88;2.80;;;;;;;17.72;47.32;94779.63;5012709;28;20317;-69
2022/09/13 07:46:02;;;;;;;4.18;2.80;;;;;;;17.91;47.04;94789.53;5012737;28;20215;-69
2022/09/13 07:48:29;;;;;;;2.40;2.17;;;;;;;17.88;46.09;94779.28;5001730;28;20222;-69
2022/09/13 07:51:01;;;;;;;2.50;2.30;;;;;;;17.82;46.80;94788.06;5004423;28;20565;-69
2022/09/13 07:53:28;;;;;;;2.58;2.38;;;;;;;17.76;47.38;94786.19;5006695;28;20209;-69
2022/09/13 07:55:59;;;;;;;3.75;2.60;;;;;;;17.81;47.79;94787.25;5010724;28;20231;-69
2022/09/13 07:58:25;;;;;;;2.95;2.53;;;;;;;18.01;47.60;94789.94;5010241;28;20229;-69
2022/09/13 08:00:50;;;;;;;2.83;2.50;;;;;;;18.35;46.12;94782.78;5011714;28;20310;-69
2022/09/13 08:03:16;;;;;;;2.97;2.55;;;;;;;18.59;45.13;94788.50;5009188;28;20218;-69
2022/09/13 08:05:41;;;;;;;2.95;2.20;;;;;;;18.56;45.21;94786.25;5009453;28;20206;-69
2022/09/13 08:08:07;;;;;;;4.15;2.78;;;;;;;18.45;44.84;94790.38;5006966;28;20765;-69
2022/09/13 08:10:33;;;;;;;2.83;2.63;;;;;;;18.35;45.71;94790.78;5007099;28;20327;-69
2022/09/13 08:12:59;;;;;;;2.75;2.55;;;;;;;18.49;45.01;94784.41;5011353;28;20269;-70
2022/09/13 08:15:25;;;;;;;2.88;2.67;;;;;;;18.44;45.35;94792.22;5012015;28;20222;-70
2022/09/13 08:17:50;;;;;;;3.03;2.40;;;;;;;18.48;44.82;94788.09;5011854;28;20280;-71
2022/09/13 08:20:16;;;;;;;3.67;2.53;;;;;;;18.66;44.63;94784.00;5012237;28;20203;-70
2022/09/13 08:22:42;;;;;;;2.50;2.28;;;;;;;18.74;44.01;94789.09;5006632;28;20224;-70
2022/09/13 08:25:07;;;;;;;5.28;2.53;;;;;;;18.69;44.06;94786.25;5011023;28;20580;-70
2022/09/13 08:27:32;;;;;;;4.75;2.97;;;;;;;18.59;44.41;94788.50;5008681;28;20250;-70
2022/09/13 08:29:58;;;;;;;3.28;2.88;;;;;;;18.67;43.81;94780.31;5007396;28;20278;-70
2022/09/13 08:32:23;;;;;;;4.97;2.72;;;;;;;18.83;43.21;94781.75;5011279;28;20195;-70
2022/09/13 08:34:49;;;;;;;2.33;1.92;;;;;;;18.87;41.19;94782.94;5005656;28;20276;-70
2022/09/13 08:37:14;;;;;;;1.85;1.75;;;;;;;18.87;40.79;94783.78;5011347;28;20221;-72
2022/09/13 08:39:39;;;;;;;1.90;1.80;;;;;;;18.82;41.56;94774.75;5009267;28;20211;-72
2022/09/13 08:42:05;;;;;;;4.47;2.30;;;;;;;18.80;41.68;94772.31;5010123;28;20310;-68
2022/09/13 08:44:41;;;;;;;2.47;1.92;;;;;;;19.07;40.68;94775.72;5009552;28;20699;-71
2022/09/13 08:47:38;;;;;;;3.40;1.90;;;;;;;19.47;39.71;94777.41;5007737;28;20215;-72
2022/09/13 08:50:11;;;;;;;4.35;2.20;;;;;;;19.75;37.75;94767.25;5004438;28;20227;-67
2022/09/13 08:52:58;;;;;;;2.63;2.20;;;;;;;20.08;37.28;94770.72;5001082;28;20224;-72
2022/09/13 08:55:56;;;;;;;4.10;1.95;;;;;;;19.79;36.41;94765.78;5007050;28;20285;-67
2022/09/13 08:58:45;;;;;;;3.85;1.98;;;;;;;19.84;36.38;94767.81;4963549;28;20289;-67
2022/09/13 09:01:35;;;;;;;2.00;1.90;;;;;;;19.97;36.56;94769.56;4965502;28;20770;-72
2022/09/13 09:04:19;;;;;;;4.18;2.30;;;;;;;19.98;36.77;94776.53;4980079;28;20310;-70
2022/09/13 09:06:45;;;;;;;2.55;1.90;;;;;;;19.84;37.04;94762.47;4988270;28;20228;-71
2022/09/13 09:09:20;;;;;;;2.47;2.28;;;;;;;19.91;37.43;94770.41;4970979;28;20238;-70
2022/09/13 09:12:18;;;;;;;3.58;2.53;;;;;;;20.16;35.24;94770.44;4972124;28;20207;-71
2022/09/13 09:14:50;;;;;;;2.70;2.30;;;;;;;20.44;34.62;94762.81;4971873;28;20724;-71
2022/09/13 09:17:48;;;;;;;1.60;1.50;;;;;;;20.31;33.30;94751.44;4970052;28;20238;-70
2022/09/13 09:20:23;;;;;;;1.52;1.42;;;;;;;20.72;33.37;94769.59;4953945;28;20232;-70
2022/09/13 09:22:51;;;;;;;2.78;1.83;;;;;;;20.83;33.03;94768.03;4946950;28;20318;-71
2022/09/13 09:25:17;;;;;;;1.70;1.60;;;;;;;20.62;33.26;94762.06;4933667;28;20264;-71
2022/09/13 09:27:42;;;;;;;1.83;1.73;;;;;;;20.79;33.19;94759.63;4955220;28;20324;-71
2022/09/13 09:30:13;;;;;;;4.20;2.05;;;;;;;21.00;33.44;94763.72;4938220;29;20292;-71
2022/09/13 09:32:57;;;;;;;2.45;1.77;;;;;;;21.28;33.55;94763.22;4933449;29;20307;-70
2022/09/13 09:35:44;;;;;;;2.85;2.13;;;;;;;21.20;34.17;94755.50;4931553;29;20593;-71
2022/09/13 09:38:42;;;;;;;1.58;1.48;;;;;;;20.93;33.59;94757.66;4949600;28;20248;-70
2022/09/13 09:41:28;;;;;;;2.30;2.10;;;;;;;21.00;34.10;94753.03;4933569;29;20229;-69
2022/09/13 09:44:05;;;;;;;2.92;1.98;;;;;;;21.26;32.63;94753.78;4933285;29;20270;-69
2022/09/13 09:46:34;;;;;;;3.88;1.90;;;;;;;21.36;33.32;94748.72;4931126;29;20224;-69
2022/09/13 09:52:17;;;;;;;2.25;1.55;;;;;;;21.59;31.96;94740.81;4942691;29;20276;-69
2022/09/13 09:54:43;;;;;;;2.35;1.48;;;;;;;21.82;32.27;94733.91;4931552;29;20737;-69
2022/09/13 09:57:10;;;;;;;1.77;1.67;;;;;;;22.16;31.58;94728.84;4961983;28;20270;-69
2022/09/13 09:59:36;;;;;;;1.70;1.60;;;;;;;22.32;31.08;94725.56;5002431;28;20226;-69
2022/09/13 10:02:14;;;;;;;1.73;1.63;;;;;;;22.44;31.00;94730.91;5007889;28;20247;-69
2022/09/13 10:04:40;;;;;;;3.15;1.73;;;;;;;22.37;30.83;94723.00;5008916;28;20218;-69
2022/09/13 10:07:17;;;;;;;2.33;1.70;;;;;;;21.81;31.56;94718.88;5008968;28;20230;-69
2022/09/13 10:10:05;;;;;;;2.65;2.00;;;;;;;21.43;32.72;94720.03;5000825;28;20260;-69
2022/09/13 10:12:37;;;;;;;4.68;2.53;;;;;;;21.50;32.87;94718.09;4990848;28;20322;-69
2022/09/13 10:15:18;;;;;;;2.70;2.25;;;;;;;21.71;32.83;94719.47;4989066;28;20207;-69
2022/09/13 10:18:02;;;;;;;4.28;2.33;;;;;;;21.58;32.13;94716.97;5008002;28;20741;-69
2022/09/13 10:20:28;;;;;;;2.58;1.95;;;;;;;21.52;32.30;94710.66;5004726;28;20322;-69
2022/09/13 10:23:15;;;;;;;1.92;1.83;;;;;;;21.67;32.05;94704.88;5008609;28;20766;-69
2022/09/13 10:25:43;;;;;;;2.83;2.10;;;;;;;21.64;32.87;94715.25;5006094;28;20290;-69
2022/09/13 10:28:17;;;;;;;5.47;2.38;;;;;;;21.59;32.77;94710.56;5002241;28;20235;-69
2022/09/13 10:30:52;;;;;;;3.03;2.03;;;;;;;21.78;32.17;94720.19;5015071;28;20218;-69
2022/09/13 10:33:23;;;;;;;4.18;2.13;;;;;;;21.79;32.26;94715.66;5004898;28;20253;-69
2022/09/13 10:35:52;;;;;;;3.63;1.85;;;;;;;21.73;31.93;94703.16;5009785;28;20206;-69
2022/09/13 10:38:33;;;;;;;2.30;2.10;;;;;;;21.94;31.65;94705.28;5002007;28;20223;-69
2022/09/13 10:41:03;;;;;;;1.90;1.80;;;;;;;22.10;31.80;94698.47;5004662;28;20218;-71
2022/09/13 10:43:31;;;;;;;2.50;2.00;;;;;;;22.24;30.75;94691.06;5007165;28;20227;-71
2022/09/13 10:45:57;;;;;;;3.17;1.80;;;;;;;22.23;30.80;94689.44;5006584;28;20680;-66
2022/09/13 10:48:23;;;;;;;1.77;1.67;;;;;;;22.10;30.80;94690.44;5005551;28;20214;-70
2022/09/13 10:51:04;;;;;;;2.20;2.00;;;;;;;22.13;30.87;94691.81;5007270;28;20209;-71
2022/09/13 10:53:34;;;;;;;2.00;1.90;;;;;;;22.21;30.91;94691.50;4996007;28;20226;-71
2022/09/13 10:56:01;;;;;;;4.18;2.40;;;;;;;22.45;30.51;94687.81;5012786;28;20309;-70
2022/09/13 10:58:27;;;;;;;2.05;1.90;;;;;;;22.63;30.19;94686.03;4989186;28;20226;-71
2022/09/13 11:01:21;;;;;;;2.80;1.85;;;;;;;22.77;30.10;94692.78;5023773;28;20286;-71
2022/09/13 11:04:25;;;;;;;2.83;1.90;;;;;;;23.07;29.41;94684.59;4956413;28;20226;-70
2022/09/13 11:07:09;;;;;;;3.15;1.67;;;;;;;23.38;29.06;94677.13;4898266;29;20224;-72
2022/09/13 11:09:56;;;;;;;2.85;1.77;;;;;;;23.38;29.33;94689.75;4895693;29;20265;-71
2022/09/13 11:12:46;;;;;;;1.90;1.80;;;;;;;23.54;28.61;94695.13;4911301;29;21071;-67
2022/09/13 11:15:48;;;;;;;1.92;1.83;;;;;;;22.82;29.57;94682.16;4915867;29;20257;-65
2022/09/13 11:18:57;;;;;;;2.78;1.90;;;;;;;23.39;29.35;94692.19;4895348;29;20225;-71
2022/09/13 11:21:53;;;;;;;1.85;1.70;;;;;;;23.66;28.62;94678.19;4894775;29;20235;-66
2022/09/13 11:24:41;;;;;;;1.88;1.77;;;;;;;23.75;27.46;94677.56;4914158;29;20229;-71
2022/09/13 11:27:09;;;;;;;2.00;1.90;;;;;;;23.75;27.63;94666.81;4895746;29;20234;-71
2022/09/13 11:30:02;;;;;;;1.60;1.50;;;;;;;23.81;27.31;94674.97;4903650;29;20221;-71
2022/09/13 11:32:50;;;;;;;2.22;2.10;;;;;;;23.75;27.04;94660.66;4919797;29;20229;-71
2022/09/13 11:35:34;;;;;;;1.85;1.75;;;;;;;23.71;27.11;94662.16;4919753;29;20238;-71
2022/09/13 11:38:29;;;;;;;1.70;1.60;;;;;;;23.61;27.03;94659.31;4914464;29;20652;-71
2022/09/13 11:40:57;;;;;;;1.73;1.63;;;;;;;23.92;26.24;94653.44;4926898;29;20386;-71
2022/09/13 11:43:59;;;;;;;2.22;1.63;;;;;;;24.21;26.21;94658.69;4945638;28;20426;-67
2022/09/13 11:46:56;;;;;;;1.60;1.50;;;;;;;24.08;25.53;94646.41;5006789;28;20716;-71
2022/09/13 11:49:31;;;;;;;2.22;2.00;;;;;;;23.76;26.95;94660.41;5000652;28;20325;-70
2022/09/13 11:52:05;;;;;;;2.05;1.65;;;;;;;23.44;27.14;94659.25;5007623;28;21374;-70
2022/09/13 11:54:33;;;;;;;1.77;1.67;;;;;;;23.61;27.27;94668.16;4994815;28;20225;-70
2022/09/13 11:57:04;;;;;;;1.60;1.50;;;;;;;23.68;26.78;94660.78;5004935;28;20207;-72
2022/09/13 11:59:45;;;;;;;3.92;2.75;;;;;;;23.97;26.93;94648.13;5010984;28;20199;-72
2022/09/13 12:02:18;;;;;;;2.63;1.75;;;;;;;24.19;26.35;94653.59;5004955;28;20550;-70
2022/09/13 12:05:09;;;;;;;2.45;2.25;;;;;;;24.37;26.69;94643.63;5019644;28;20305;-72